sensor_id;sensor_type;location;lat;lon;timestamp;P1;durP1;ratioP1;P2;durP2;ratioP2
20391;SDS011;10355;53.688;10.078;2023-11-19T00:01:02;3.00;;;2.25;;
20391;SDS011;10355;53.688;10.078;2023-11-19T00:03:47;3.22;;;2.10;;
20391;SDS011;10355;53.688;10.078;2023-11-19T00:06:31;4.43;;;2.03;;
20391;SDS011;10355;53.688;10.078;2023-11-19T00:09:16;2.72;;;2.05;;
20391;SDS011;10355;53.688;10.078;2023-11-19T00:11:59;2.95;;;2.28;;
20391;SDS011;10355;53.688;10.078;2023-11-19T00:14:42;3.13;;;2.05;;
20391;SDS011;10355;53.688;10.078;2023-11-19T00:17:26;3.38;;;1.90;;
20391;SDS011;10355;53.688;10.078;2023-11-19T00:20:09;3.00;;;1.80;;
20391;SDS011;10355;53.688;10.078;2023-11-19T00:22:52;2.55;;;1.60;;
20391;SDS011;10355;53.688;10.078;2023-11-19T00:25:36;1.88;;;1.65;;
20391;SDS011;10355;53.688;10.078;2023-11-19T00:28:20;2.28;;;1.50;;
20391;SDS011;10355;53.688;10.078;2023-11-19T00:31:03;1.88;;;1.50;;
20391;SDS011;10355;53.688;10.078;2023-11-19T00:33:46;2.78;;;1.42;;
20391;SDS011;10355;53.688;10.078;2023-11-19T00:36:31;2.28;;;1.38;;
20391;SDS011;10355;53.688;10.078;2023-11-19T00:39:14;1.55;;;1.15;;
20391;SDS011;10355;53.688;10.078;2023-11-19T00:41:58;1.73;;;1.33;;
20391;SDS011;10355;53.688;10.078;2023-11-19T00:44:41;1.17;;;1.08;;
20391;SDS011;10355;53.688;10.078;2023-11-19T00:47:31;1.73;;;1.30;;
20391;SDS011;10355;53.688;10.078;2023-11-19T00:50:14;1.38;;;1.20;;
20391;SDS011;10355;53.688;10.078;2023-11-19T00:52:57;2.05;;;1.40;;
20391;SDS011;10355;53.688;10.078;2023-11-19T00:55:40;1.60;;;1.27;;
20391;SDS011;10355;53.688;10.078;2023-11-19T00:58:27;1.63;;;1.20;;
20391;SDS011;10355;53.688;10.078;2023-11-19T01:01:11;1.00;;;0.90;;
20391;SDS011;10355;53.688;10.078;2023-11-19T01:03:54;1.10;;;1.00;;
20391;SDS011;10355;53.688;10.078;2023-11-19T01:06:38;0.93;;;0.70;;
20391;SDS011;10355;53.688;10.078;2023-11-19T01:09:30;1.02;;;0.90;;
20391;SDS011;10355;53.688;10.078;2023-11-19T01:12:13;1.13;;;0.90;;
20391;SDS011;10355;53.688;10.078;2023-11-19T01:14:58;1.33;;;0.80;;
20391;SDS011;10355;53.688;10.078;2023-11-19T01:17:41;0.75;;;0.75;;
20391;SDS011;10355;53.688;10.078;2023-11-19T01:20:28;1.13;;;0.80;;
20391;SDS011;10355;53.688;10.078;2023-11-19T01:23:10;0.88;;;0.65;;
20391;SDS011;10355;53.688;10.078;2023-11-19T01:25:53;0.98;;;0.60;;
20391;SDS011;10355;53.688;10.078;2023-11-19T01:28:36;1.00;;;0.70;;
20391;SDS011;10355;53.688;10.078;2023-11-19T01:31:34;1.05;;;0.68;;
20391;SDS011;10355;53.688;10.078;2023-11-19T01:34:16;1.08;;;0.60;;
20391;SDS011;10355;53.688;10.078;2023-11-19T01:36:59;0.98;;;0.73;;
20391;SDS011;10355;53.688;10.078;2023-11-19T01:39:43;0.70;;;0.70;;
20391;SDS011;10355;53.688;10.078;2023-11-19T01:42:40;0.63;;;0.50;;
20391;SDS011;10355;53.688;10.078;2023-11-19T01:45:26;1.23;;;0.75;;
20391;SDS011;10355;53.688;10.078;2023-11-19T01:48:12;0.80;;;0.60;;
20391;SDS011;10355;53.688;10.078;2023-11-19T01:50:56;0.50;;;0.50;;
20391;SDS011;10355;53.688;10.078;2023-11-19T01:53:43;0.88;;;0.57;;
20391;SDS011;10355;53.688;10.078;2023-11-19T01:56:27;0.68;;;0.60;;
20391;SDS011;10355;53.688;10.078;2023-11-19T01:59:10;0.80;;;0.60;;
20391;SDS011;10355;53.688;10.078;2023-11-19T02:01:55;0.93;;;0.40;;
20391;SDS011;10355;53.688;10.078;2023-11-19T02:04:43;0.50;;;0.50;;
20391;SDS011;10355;53.688;10.078;2023-11-19T02:07:28;0.50;;;0.50;;
20391;SDS011;10355;53.688;10.078;2023-11-19T02:10:11;1.25;;;0.60;;
20391;SDS011;10355;53.688;10.078;2023-11-19T02:12:56;1.27;;;0.57;;
20391;SDS011;10355;53.688;10.078;2023-11-19T02:15:47;0.45;;;0.45;;
20391;SDS011;10355;53.688;10.078;2023-11-19T02:18:30;0.40;;;0.40;;
20391;SDS011;10355;53.688;10.078;2023-11-19T02:21:14;0.63;;;0.50;;
20391;SDS011;10355;53.688;10.078;2023-11-19T02:23:58;0.50;;;0.50;;
20391;SDS011;10355;53.688;10.078;2023-11-19T02:26:46;0.30;;;0.30;;
20391;SDS011;10355;53.688;10.078;2023-11-19T02:29:33;0.30;;;0.30;;
20391;SDS011;10355;53.688;10.078;2023-11-19T02:32:16;0.50;;;0.40;;
20391;SDS011;10355;53.688;10.078;2023-11-19T02:34:59;0.40;;;0.40;;
20391;SDS011;10355;53.688;10.078;2023-11-19T02:37:45;0.30;;;0.30;;
20391;SDS011;10355;53.688;10.078;2023-11-19T02:40:27;0.50;;;0.40;;
20391;SDS011;10355;53.688;10.078;2023-11-19T02:43:10;0.50;;;0.35;;
20391;SDS011;10355;53.688;10.078;2023-11-19T02:45:54;0.30;;;0.30;;
20391;SDS011;10355;53.688;10.078;2023-11-19T02:48:38;0.40;;;0.40;;
20391;SDS011;10355;53.688;10.078;2023-11-19T02:51:21;1.95;;;0.40;;
20391;SDS011;10355;53.688;10.078;2023-11-19T02:54:04;0.43;;;0.40;;
20391;SDS011;10355;53.688;10.078;2023-11-19T02:56:47;0.57;;;0.40;;
20391;SDS011;10355;53.688;10.078;2023-11-19T02:59:38;0.30;;;0.30;;
20391;SDS011;10355;53.688;10.078;2023-11-19T03:02:24;0.40;;;0.30;;
20391;SDS011;10355;53.688;10.078;2023-11-19T03:05:15;0.30;;;0.30;;
20391;SDS011;10355;53.688;10.078;2023-11-19T03:07:58;0.50;;;0.40;;
20391;SDS011;10355;53.688;10.078;2023-11-19T03:10:41;0.35;;;0.35;;
20391;SDS011;10355;53.688;10.078;2023-11-19T03:13:23;0.40;;;0.30;;
20391;SDS011;10355;53.688;10.078;2023-11-19T03:16:06;0.30;;;0.30;;
20391;SDS011;10355;53.688;10.078;2023-11-19T03:18:51;0.40;;;0.30;;
20391;SDS011;10355;53.688;10.078;2023-11-19T03:21:34;0.45;;;0.40;;
20391;SDS011;10355;53.688;10.078;2023-11-19T03:24:18;0.45;;;0.30;;
20391;SDS011;10355;53.688;10.078;2023-11-19T03:27:01;0.60;;;0.50;;
20391;SDS011;10355;53.688;10.078;2023-11-19T03:29:45;0.40;;;0.40;;
20391;SDS011;10355;53.688;10.078;2023-11-19T03:32:28;0.57;;;0.30;;
20391;SDS011;10355;53.688;10.078;2023-11-19T03:35:12;0.40;;;0.40;;
20391;SDS011;10355;53.688;10.078;2023-11-19T03:37:56;0.70;;;0.40;;
20391;SDS011;10355;53.688;10.078;2023-11-19T03:40:39;1.73;;;0.50;;
20391;SDS011;10355;53.688;10.078;2023-11-19T03:43:22;0.93;;;0.47;;
20391;SDS011;10355;53.688;10.078;2023-11-19T03:46:05;0.65;;;0.43;;
20391;SDS011;10355;53.688;10.078;2023-11-19T03:48:57;0.63;;;0.50;;
20391;SDS011;10355;53.688;10.078;2023-11-19T03:51:42;0.40;;;0.40;;
20391;SDS011;10355;53.688;10.078;2023-11-19T03:54:25;0.40;;;0.40;;
20391;SDS011;10355;53.688;10.078;2023-11-19T03:57:09;0.95;;;0.40;;
20391;SDS011;10355;53.688;10.078;2023-11-19T03:59:53;1.00;;;0.60;;
20391;SDS011;10355;53.688;10.078;2023-11-19T04:02:37;1.20;;;0.50;;
20391;SDS011;10355;53.688;10.078;2023-11-19T04:05:20;0.50;;;0.50;;
20391;SDS011;10355;53.688;10.078;2023-11-19T04:08:05;0.50;;;0.50;;
20391;SDS011;10355;53.688;10.078;2023-11-19T04:10:48;0.63;;;0.60;;
20391;SDS011;10355;53.688;10.078;2023-11-19T04:13:31;0.55;;;0.55;;
20391;SDS011;10355;53.688;10.078;2023-11-19T04:16:14;1.63;;;0.60;;
20391;SDS011;10355;53.688;10.078;2023-11-19T04:18:57;0.55;;;0.50;;
20391;SDS011;10355;53.688;10.078;2023-11-19T04:21:40;0.70;;;0.70;;
20391;SDS011;10355;53.688;10.078;2023-11-19T04:24:24;0.60;;;0.60;;
20391;SDS011;10355;53.688;10.078;2023-11-19T04:27:07;0.75;;;0.70;;
20391;SDS011;10355;53.688;10.078;2023-11-19T04:29:50;1.67;;;0.70;;
20391;SDS011;10355;53.688;10.078;2023-11-19T04:32:33;0.80;;;0.70;;
20391;SDS011;10355;53.688;10.078;2023-11-19T04:35:16;1.20;;;0.80;;
20391;SDS011;10355;53.688;10.078;2023-11-19T04:38:00;1.08;;;0.90;;
20391;SDS011;10355;53.688;10.078;2023-11-19T04:40:45;1.25;;;0.88;;
20391;SDS011;10355;53.688;10.078;2023-11-19T04:43:28;1.23;;;0.88;;
20391;SDS011;10355;53.688;10.078;2023-11-19T04:46:10;0.75;;;0.75;;
20391;SDS011;10355;53.688;10.078;2023-11-19T04:48:53;0.98;;;0.70;;
20391;SDS011;10355;53.688;10.078;2023-11-19T04:51:38;0.60;;;0.57;;
20391;SDS011;10355;53.688;10.078;2023-11-19T04:54:20;1.30;;;0.90;;
20391;SDS011;10355;53.688;10.078;2023-11-19T04:57:05;1.30;;;0.90;;
20391;SDS011;10355;53.688;10.078;2023-11-19T04:59:48;1.45;;;1.10;;
20391;SDS011;10355;53.688;10.078;2023-11-19T05:02:31;2.03;;;1.10;;
20391;SDS011;10355;53.688;10.078;2023-11-19T05:05:15;1.48;;;1.10;;
20391;SDS011;10355;53.688;10.078;2023-11-19T05:07:58;1.55;;;1.40;;
20391;SDS011;10355;53.688;10.078;2023-11-19T05:10:41;2.38;;;1.63;;
20391;SDS011;10355;53.688;10.078;2023-11-19T05:13:25;2.17;;;1.55;;
20391;SDS011;10355;53.688;10.078;2023-11-19T05:16:08;2.30;;;1.50;;
20391;SDS011;10355;53.688;10.078;2023-11-19T05:18:51;2.08;;;1.77;;
20391;SDS011;10355;53.688;10.078;2023-11-19T05:21:34;2.20;;;1.90;;
20391;SDS011;10355;53.688;10.078;2023-11-19T05:24:17;4.28;;;2.05;;
20391;SDS011;10355;53.688;10.078;2023-11-19T05:27:00;2.88;;;1.80;;
20391;SDS011;10355;53.688;10.078;2023-11-19T05:29:44;3.20;;;2.25;;
20391;SDS011;10355;53.688;10.078;2023-11-19T05:32:27;2.80;;;2.25;;
20391;SDS011;10355;53.688;10.078;2023-11-19T05:35:10;3.22;;;2.40;;
20391;SDS011;10355;53.688;10.078;2023-11-19T05:37:53;3.60;;;2.67;;
20391;SDS011;10355;53.688;10.078;2023-11-19T05:40:37;4.30;;;2.50;;
20391;SDS011;10355;53.688;10.078;2023-11-19T05:43:21;5.38;;;2.97;;
20391;SDS011;10355;53.688;10.078;2023-11-19T05:46:05;4.78;;;2.72;;
20391;SDS011;10355;53.688;10.078;2023-11-19T05:49:00;6.38;;;3.10;;
20391;SDS011;10355;53.688;10.078;2023-11-19T05:51:44;4.10;;;2.75;;
20391;SDS011;10355;53.688;10.078;2023-11-19T05:54:27;4.28;;;3.00;;
20391;SDS011;10355;53.688;10.078;2023-11-19T05:57:12;4.75;;;3.42;;
20391;SDS011;10355;53.688;10.078;2023-11-19T05:59:55;4.50;;;2.78;;
20391;SDS011;10355;53.688;10.078;2023-11-19T06:02:39;6.68;;;3.30;;
20391;SDS011;10355;53.688;10.078;2023-11-19T06:05:22;4.85;;;2.95;;
20391;SDS011;10355;53.688;10.078;2023-11-19T06:08:05;4.53;;;3.50;;
20391;SDS011;10355;53.688;10.078;2023-11-19T06:10:49;6.22;;;3.42;;
20391;SDS011;10355;53.688;10.078;2023-11-19T06:13:32;4.13;;;3.15;;
20391;SDS011;10355;53.688;10.078;2023-11-19T06:16:15;5.13;;;3.58;;
20391;SDS011;10355;53.688;10.078;2023-11-19T06:19:00;6.47;;;3.25;;
20391;SDS011;10355;53.688;10.078;2023-11-19T06:21:43;6.72;;;3.50;;
20391;SDS011;10355;53.688;10.078;2023-11-19T06:24:25;5.07;;;3.30;;
20391;SDS011;10355;53.688;10.078;2023-11-19T06:27:08;6.13;;;3.45;;
20391;SDS011;10355;53.688;10.078;2023-11-19T06:29:51;5.80;;;3.42;;
20391;SDS011;10355;53.688;10.078;2023-11-19T06:32:34;7.38;;;3.92;;
20391;SDS011;10355;53.688;10.078;2023-11-19T06:35:18;4.88;;;3.40;;
20391;SDS011;10355;53.688;10.078;2023-11-19T06:38:01;7.07;;;3.90;;
20391;SDS011;10355;53.688;10.078;2023-11-19T06:40:43;6.22;;;3.55;;
20391;SDS011;10355;53.688;10.078;2023-11-19T06:43:27;5.95;;;3.35;;
20391;SDS011;10355;53.688;10.078;2023-11-19T06:46:23;6.28;;;3.45;;
20391;SDS011;10355;53.688;10.078;2023-11-19T06:49:05;7.00;;;3.70;;
20391;SDS011;10355;53.688;10.078;2023-11-19T06:51:50;6.13;;;3.55;;
20391;SDS011;10355;53.688;10.078;2023-11-19T06:54:33;6.47;;;3.30;;
20391;SDS011;10355;53.688;10.078;2023-11-19T06:57:16;6.85;;;3.63;;
20391;SDS011;10355;53.688;10.078;2023-11-19T06:59:59;7.70;;;3.50;;
20391;SDS011;10355;53.688;10.078;2023-11-19T07:02:42;6.30;;;3.00;;
20391;SDS011;10355;53.688;10.078;2023-11-19T07:05:26;6.40;;;3.08;;
20391;SDS011;10355;53.688;10.078;2023-11-19T07:08:11;5.55;;;2.92;;
20391;SDS011;10355;53.688;10.078;2023-11-19T07:10:54;7.18;;;2.63;;
20391;SDS011;10355;53.688;10.078;2023-11-19T07:13:36;8.43;;;2.00;;
20391;SDS011;10355;53.688;10.078;2023-11-19T07:16:19;7.03;;;2.20;;
20391;SDS011;10355;53.688;10.078;2023-11-19T07:19:03;6.65;;;1.65;;
20391;SDS011;10355;53.688;10.078;2023-11-19T07:21:46;4.53;;;1.95;;
20391;SDS011;10355;53.688;10.078;2023-11-19T07:24:30;6.05;;;1.90;;
20391;SDS011;10355;53.688;10.078;2023-11-19T07:27:13;5.50;;;1.63;;
20391;SDS011;10355;53.688;10.078;2023-11-19T07:29:57;8.70;;;1.90;;
20391;SDS011;10355;53.688;10.078;2023-11-19T07:32:39;11.40;;;2.05;;
20391;SDS011;10355;53.688;10.078;2023-11-19T07:35:22;8.63;;;2.15;;
20391;SDS011;10355;53.688;10.078;2023-11-19T07:38:05;8.70;;;1.90;;
20391;SDS011;10355;53.688;10.078;2023-11-19T07:40:50;11.40;;;2.00;;
20391;SDS011;10355;53.688;10.078;2023-11-19T07:43:36;10.10;;;2.05;;
20391;SDS011;10355;53.688;10.078;2023-11-19T07:46:19;10.77;;;1.98;;
20391;SDS011;10355;53.688;10.078;2023-11-19T07:49:02;7.78;;;2.13;;
20391;SDS011;10355;53.688;10.078;2023-11-19T07:51:45;8.65;;;2.03;;
20391;SDS011;10355;53.688;10.078;2023-11-19T07:54:28;9.15;;;1.92;;
20391;SDS011;10355;53.688;10.078;2023-11-19T07:57:12;8.63;;;1.80;;
20391;SDS011;10355;53.688;10.078;2023-11-19T07:59:55;13.07;;;2.03;;
20391;SDS011;10355;53.688;10.078;2023-11-19T08:02:37;9.52;;;1.67;;
20391;SDS011;10355;53.688;10.078;2023-11-19T08:05:21;11.15;;;1.58;;
20391;SDS011;10355;53.688;10.078;2023-11-19T08:08:06;7.68;;;1.98;;
20391;SDS011;10355;53.688;10.078;2023-11-19T08:10:49;10.60;;;2.03;;
20391;SDS011;10355;53.688;10.078;2023-11-19T08:13:34;10.35;;;2.00;;
20391;SDS011;10355;53.688;10.078;2023-11-19T08:16:16;10.30;;;1.90;;
20391;SDS011;10355;53.688;10.078;2023-11-19T08:18:59;11.20;;;1.85;;
20391;SDS011;10355;53.688;10.078;2023-11-19T08:21:42;10.45;;;1.80;;
20391;SDS011;10355;53.688;10.078;2023-11-19T08:24:25;11.15;;;2.08;;
20391;SDS011;10355;53.688;10.078;2023-11-19T08:27:07;12.48;;;2.20;;
20391;SDS011;10355;53.688;10.078;2023-11-19T08:29:52;16.58;;;2.40;;
20391;SDS011;10355;53.688;10.078;2023-11-19T08:32:34;8.45;;;1.98;;
20391;SDS011;10355;53.688;10.078;2023-11-19T08:35:18;13.55;;;2.13;;
20391;SDS011;10355;53.688;10.078;2023-11-19T08:38:01;11.32;;;1.88;;
20391;SDS011;10355;53.688;10.078;2023-11-19T08:40:46;17.67;;;2.30;;
20391;SDS011;10355;53.688;10.078;2023-11-19T08:43:29;12.27;;;1.98;;
20391;SDS011;10355;53.688;10.078;2023-11-19T08:46:14;13.43;;;2.40;;
20391;SDS011;10355;53.688;10.078;2023-11-19T08:48:57;13.43;;;2.60;;
20391;SDS011;10355;53.688;10.078;2023-11-19T08:51:41;12.27;;;1.83;;
20391;SDS011;10355;53.688;10.078;2023-11-19T08:54:24;10.02;;;2.05;;
20391;SDS011;10355;53.688;10.078;2023-11-19T08:57:07;15.68;;;2.10;;
20391;SDS011;10355;53.688;10.078;2023-11-19T08:59:50;15.07;;;2.55;;
20391;SDS011;10355;53.688;10.078;2023-11-19T09:02:34;10.70;;;2.45;;
20391;SDS011;10355;53.688;10.078;2023-11-19T09:05:18;11.52;;;2.10;;
20391;SDS011;10355;53.688;10.078;2023-11-19T09:08:01;10.30;;;1.88;;
20391;SDS011;10355;53.688;10.078;2023-11-19T09:10:45;11.07;;;1.95;;
20391;SDS011;10355;53.688;10.078;2023-11-19T09:13:28;13.23;;;2.10;;
20391;SDS011;10355;53.688;10.078;2023-11-19T09:16:45;10.65;;;2.00;;
20391;SDS011;10355;53.688;10.078;2023-11-19T09:19:31;15.10;;;2.13;;
20391;SDS011;10355;53.688;10.078;2023-11-19T09:22:14;9.77;;;2.58;;
20391;SDS011;10355;53.688;10.078;2023-11-19T09:24:57;14.93;;;2.90;;
20391;SDS011;10355;53.688;10.078;2023-11-19T09:27:42;18.15;;;2.60;;
20391;SDS011;10355;53.688;10.078;2023-11-19T09:30:24;11.80;;;2.40;;
20391;SDS011;10355;53.688;10.078;2023-11-19T09:33:07;12.95;;;2.97;;
20391;SDS011;10355;53.688;10.078;2023-11-19T09:35:52;14.27;;;2.65;;
20391;SDS011;10355;53.688;10.078;2023-11-19T09:38:34;14.95;;;2.22;;
20391;SDS011;10355;53.688;10.078;2023-11-19T09:41:19;18.13;;;3.00;;
20391;SDS011;10355;53.688;10.078;2023-11-19T09:44:02;20.77;;;3.08;;
20391;SDS011;10355;53.688;10.078;2023-11-19T09:46:45;12.20;;;2.85;;
20391;SDS011;10355;53.688;10.078;2023-11-19T09:49:30;16.75;;;2.63;;
20391;SDS011;10355;53.688;10.078;2023-11-19T09:52:18;16.08;;;2.88;;
20391;SDS011;10355;53.688;10.078;2023-11-19T09:55:01;15.50;;;3.00;;
20391;SDS011;10355;53.688;10.078;2023-11-19T09:57:44;17.58;;;2.47;;
20391;SDS011;10355;53.688;10.078;2023-11-19T10:00:27;16.02;;;2.90;;
20391;SDS011;10355;53.688;10.078;2023-11-19T10:03:10;15.55;;;2.85;;
20391;SDS011;10355;53.688;10.078;2023-11-19T10:05:54;19.70;;;2.70;;
20391;SDS011;10355;53.688;10.078;2023-11-19T10:08:38;15.00;;;2.53;;
20391;SDS011;10355;53.688;10.078;2023-11-19T10:11:22;12.63;;;2.30;;
20391;SDS011;10355;53.688;10.078;2023-11-19T10:14:04;17.00;;;2.70;;
20391;SDS011;10355;53.688;10.078;2023-11-19T10:16:48;15.90;;;2.90;;
20391;SDS011;10355;53.688;10.078;2023-11-19T10:19:31;17.98;;;3.00;;
20391;SDS011;10355;53.688;10.078;2023-11-19T10:22:14;15.23;;;2.85;;
20391;SDS011;10355;53.688;10.078;2023-11-19T10:24:59;13.77;;;2.35;;
20391;SDS011;10355;53.688;10.078;2023-11-19T10:27:42;13.15;;;2.85;;
20391;SDS011;10355;53.688;10.078;2023-11-19T10:30:26;14.85;;;2.65;;
20391;SDS011;10355;53.688;10.078;2023-11-19T10:33:10;11.35;;;2.35;;
20391;SDS011;10355;53.688;10.078;2023-11-19T10:35:58;15.02;;;2.78;;
20391;SDS011;10355;53.688;10.078;2023-11-19T10:38:51;12.98;;;2.47;;
20391;SDS011;10355;53.688;10.078;2023-11-19T10:41:35;16.20;;;2.80;;
20391;SDS011;10355;53.688;10.078;2023-11-19T10:44:31;18.23;;;2.63;;
20391;SDS011;10355;53.688;10.078;2023-11-19T10:47:15;20.67;;;2.67;;
20391;SDS011;10355;53.688;10.078;2023-11-19T10:49:59;16.13;;;2.20;;
20391;SDS011;10355;53.688;10.078;2023-11-19T10:52:42;13.88;;;2.15;;
20391;SDS011;10355;53.688;10.078;2023-11-19T10:55:26;15.45;;;2.47;;
20391;SDS011;10355;53.688;10.078;2023-11-19T10:58:11;19.38;;;2.92;;
20391;SDS011;10355;53.688;10.078;2023-11-19T11:00:55;15.77;;;2.80;;
20391;SDS011;10355;53.688;10.078;2023-11-19T11:03:39;11.77;;;2.38;;
20391;SDS011;10355;53.688;10.078;2023-11-19T11:06:23;18.92;;;2.90;;
20391;SDS011;10355;53.688;10.078;2023-11-19T11:09:06;16.33;;;2.78;;
20391;SDS011;10355;53.688;10.078;2023-11-19T11:11:53;14.27;;;2.20;;
20391;SDS011;10355;53.688;10.078;2023-11-19T11:14:38;18.48;;;2.63;;
20391;SDS011;10355;53.688;10.078;2023-11-19T11:17:24;9.73;;;2.17;;
20391;SDS011;10355;53.688;10.078;2023-11-19T11:20:10;14.27;;;2.40;;
20391;SDS011;10355;53.688;10.078;2023-11-19T11:23:03;14.52;;;2.53;;
20391;SDS011;10355;53.688;10.078;2023-11-19T11:25:52;16.40;;;2.90;;
20391;SDS011;10355;53.688;10.078;2023-11-19T11:28:40;15.00;;;2.53;;
20391;SDS011;10355;53.688;10.078;2023-11-19T11:31:29;16.15;;;2.35;;
20391;SDS011;10355;53.688;10.078;2023-11-19T11:34:24;15.77;;;2.63;;
20391;SDS011;10355;53.688;10.078;2023-11-19T11:37:10;13.90;;;2.70;;
20391;SDS011;10355;53.688;10.078;2023-11-19T11:39:56;19.10;;;3.17;;
20391;SDS011;10355;53.688;10.078;2023-11-19T11:42:40;12.35;;;2.05;;
20391;SDS011;10355;53.688;10.078;2023-11-19T11:45:34;15.10;;;2.67;;
20391;SDS011;10355;53.688;10.078;2023-11-19T11:48:20;16.85;;;2.47;;
20391;SDS011;10355;53.688;10.078;2023-11-19T11:51:04;18.88;;;2.55;;
20391;SDS011;10355;53.688;10.078;2023-11-19T11:53:47;14.93;;;2.78;;
20391;SDS011;10355;53.688;10.078;2023-11-19T11:56:32;14.68;;;2.63;;
20391;SDS011;10355;53.688;10.078;2023-11-19T11:59:18;9.73;;;2.10;;
20391;SDS011;10355;53.688;10.078;2023-11-19T12:02:01;19.42;;;2.58;;
20391;SDS011;10355;53.688;10.078;2023-11-19T12:04:50;14.90;;;2.50;;
20391;SDS011;10355;53.688;10.078;2023-11-19T12:07:34;12.50;;;1.95;;
20391;SDS011;10355;53.688;10.078;2023-11-19T12:10:20;8.50;;;1.88;;
20391;SDS011;10355;53.688;10.078;2023-11-19T12:13:05;5.57;;;1.42;;
20391;SDS011;10355;53.688;10.078;2023-11-19T12:16:06;14.30;;;2.47;;
20391;SDS011;10355;53.688;10.078;2023-11-19T12:18:49;14.82;;;2.47;;
20391;SDS011;10355;53.688;10.078;2023-11-19T12:21:34;14.40;;;2.22;;
20391;SDS011;10355;53.688;10.078;2023-11-19T12:24:19;12.88;;;2.08;;
20391;SDS011;10355;53.688;10.078;2023-11-19T12:27:02;13.75;;;2.83;;
20391;SDS011;10355;53.688;10.078;2023-11-19T12:29:45;16.52;;;2.22;;
20391;SDS011;10355;53.688;10.078;2023-11-19T12:32:36;14.13;;;2.88;;
20391;SDS011;10355;53.688;10.078;2023-11-19T12:35:19;10.93;;;2.58;;
20391;SDS011;10355;53.688;10.078;2023-11-19T12:38:04;15.98;;;2.95;;
20391;SDS011;10355;53.688;10.078;2023-11-19T12:40:46;19.13;;;2.30;;
20391;SDS011;10355;53.688;10.078;2023-11-19T12:43:29;12.88;;;2.75;;
20391;SDS011;10355;53.688;10.078;2023-11-19T12:46:19;13.88;;;2.65;;
20391;SDS011;10355;53.688;10.078;2023-11-19T12:49:02;12.15;;;2.30;;
20391;SDS011;10355;53.688;10.078;2023-11-19T12:51:47;16.77;;;3.03;;
20391;SDS011;10355;53.688;10.078;2023-11-19T12:54:35;14.13;;;2.42;;
20391;SDS011;10355;53.688;10.078;2023-11-19T12:57:18;13.02;;;2.22;;
20391;SDS011;10355;53.688;10.078;2023-11-19T13:00:01;12.32;;;2.53;;
20391;SDS011;10355;53.688;10.078;2023-11-19T13:02:45;13.90;;;2.28;;
20391;SDS011;10355;53.688;10.078;2023-11-19T13:05:29;12.35;;;2.00;;
20391;SDS011;10355;53.688;10.078;2023-11-19T13:08:12;13.95;;;2.30;;
20391;SDS011;10355;53.688;10.078;2023-11-19T13:10:56;16.38;;;2.30;;
20391;SDS011;10355;53.688;10.078;2023-11-19T13:13:55;13.90;;;2.17;;
20391;SDS011;10355;53.688;10.078;2023-11-19T13:16:38;17.25;;;2.17;;
20391;SDS011;10355;53.688;10.078;2023-11-19T13:19:21;16.92;;;2.35;;
20391;SDS011;10355;53.688;10.078;2023-11-19T13:22:05;11.55;;;1.95;;
20391;SDS011;10355;53.688;10.078;2023-11-19T13:24:48;20.48;;;2.85;;
20391;SDS011;10355;53.688;10.078;2023-11-19T13:27:32;11.40;;;2.15;;
20391;SDS011;10355;53.688;10.078;2023-11-19T13:30:16;12.40;;;2.45;;
20391;SDS011;10355;53.688;10.078;2023-11-19T13:33:01;13.88;;;2.08;;
20391;SDS011;10355;53.688;10.078;2023-11-19T13:35:45;13.27;;;2.22;;
20391;SDS011;10355;53.688;10.078;2023-11-19T13:38:27;12.60;;;2.30;;
20391;SDS011;10355;53.688;10.078;2023-11-19T13:41:10;19.50;;;2.88;;
20391;SDS011;10355;53.688;10.078;2023-11-19T13:43:55;14.07;;;2.35;;
20391;SDS011;10355;53.688;10.078;2023-11-19T13:46:38;18.20;;;2.58;;
20391;SDS011;10355;53.688;10.078;2023-11-19T13:49:21;15.02;;;2.75;;
20391;SDS011;10355;53.688;10.078;2023-11-19T13:52:05;15.80;;;2.42;;
20391;SDS011;10355;53.688;10.078;2023-11-19T13:54:48;11.45;;;2.17;;
20391;SDS011;10355;53.688;10.078;2023-11-19T13:57:33;15.85;;;2.20;;
20391;SDS011;10355;53.688;10.078;2023-11-19T14:00:17;16.95;;;2.30;;
20391;SDS011;10355;53.688;10.078;2023-11-19T14:03:00;12.35;;;2.38;;
20391;SDS011;10355;53.688;10.078;2023-11-19T14:05:44;16.55;;;2.40;;
20391;SDS011;10355;53.688;10.078;2023-11-19T14:08:28;13.38;;;2.40;;
20391;SDS011;10355;53.688;10.078;2023-11-19T14:11:10;14.30;;;2.53;;
20391;SDS011;10355;53.688;10.078;2023-11-19T14:13:53;15.93;;;2.53;;
20391;SDS011;10355;53.688;10.078;2023-11-19T14:16:37;14.32;;;2.53;;
20391;SDS011;10355;53.688;10.078;2023-11-19T14:19:20;13.90;;;2.45;;
20391;SDS011;10355;53.688;10.078;2023-11-19T14:22:03;13.30;;;1.92;;
20391;SDS011;10355;53.688;10.078;2023-11-19T14:24:46;15.07;;;2.50;;
20391;SDS011;10355;53.688;10.078;2023-11-19T14:27:28;15.85;;;2.88;;
20391;SDS011;10355;53.688;10.078;2023-11-19T14:30:12;8.50;;;1.95;;
20391;SDS011;10355;53.688;10.078;2023-11-19T14:32:56;13.45;;;2.13;;
20391;SDS011;10355;53.688;10.078;2023-11-19T14:35:39;9.32;;;2.15;;
20391;SDS011;10355;53.688;10.078;2023-11-19T14:38:22;12.52;;;2.13;;
20391;SDS011;10355;53.688;10.078;2023-11-19T14:41:05;13.10;;;2.20;;
20391;SDS011;10355;53.688;10.078;2023-11-19T14:43:49;12.48;;;1.75;;
20391;SDS011;10355;53.688;10.078;2023-11-19T14:46:31;9.93;;;2.03;;
20391;SDS011;10355;53.688;10.078;2023-11-19T14:49:16;6.13;;;1.50;;
20391;SDS011;10355;53.688;10.078;2023-11-19T14:51:59;7.88;;;1.30;;
20391;SDS011;10355;53.688;10.078;2023-11-19T14:54:44;9.60;;;1.50;;
20391;SDS011;10355;53.688;10.078;2023-11-19T14:57:28;8.05;;;1.45;;
20391;SDS011;10355;53.688;10.078;2023-11-19T15:00:11;6.60;;;1.20;;
20391;SDS011;10355;53.688;10.078;2023-11-19T15:02:55;6.95;;;1.40;;
20391;SDS011;10355;53.688;10.078;2023-11-19T15:05:40;3.42;;;0.98;;
20391;SDS011;10355;53.688;10.078;2023-11-19T15:08:23;7.65;;;1.05;;
20391;SDS011;10355;53.688;10.078;2023-11-19T15:11:06;4.30;;;0.77;;
20391;SDS011;10355;53.688;10.078;2023-11-19T15:13:50;4.15;;;1.02;;
20391;SDS011;10355;53.688;10.078;2023-11-19T15:16:33;3.85;;;0.88;;
20391;SDS011;10355;53.688;10.078;2023-11-19T15:19:16;3.90;;;0.82;;
20391;SDS011;10355;53.688;10.078;2023-11-19T15:22:03;4.50;;;1.00;;
20391;SDS011;10355;53.688;10.078;2023-11-19T15:24:46;3.35;;;0.73;;
20391;SDS011;10355;53.688;10.078;2023-11-19T15:27:29;6.00;;;1.00;;
20391;SDS011;10355;53.688;10.078;2023-11-19T15:30:12;3.53;;;1.00;;
20391;SDS011;10355;53.688;10.078;2023-11-19T15:32:55;3.78;;;0.70;;
20391;SDS011;10355;53.688;10.078;2023-11-19T15:35:38;5.57;;;0.75;;
20391;SDS011;10355;53.688;10.078;2023-11-19T15:38:23;6.55;;;0.98;;
20391;SDS011;10355;53.688;10.078;2023-11-19T15:41:07;2.42;;;0.57;;
20391;SDS011;10355;53.688;10.078;2023-11-19T15:43:53;2.75;;;0.50;;
20391;SDS011;10355;53.688;10.078;2023-11-19T15:46:36;3.13;;;0.70;;
20391;SDS011;10355;53.688;10.078;2023-11-19T15:49:19;1.73;;;0.63;;
20391;SDS011;10355;53.688;10.078;2023-11-19T15:52:02;2.78;;;0.52;;
20391;SDS011;10355;53.688;10.078;2023-11-19T15:54:47;2.92;;;0.55;;
20391;SDS011;10355;53.688;10.078;2023-11-19T15:57:30;5.70;;;0.80;;
20391;SDS011;10355;53.688;10.078;2023-11-19T16:00:14;2.75;;;0.60;;
20391;SDS011;10355;53.688;10.078;2023-11-19T16:02:58;5.65;;;1.20;;
20391;SDS011;10355;53.688;10.078;2023-11-19T16:05:41;3.90;;;1.10;;
20391;SDS011;10355;53.688;10.078;2023-11-19T16:08:24;3.45;;;0.90;;